Climatologie pour Saint-Brevin les Pins
Jour • Résumé pour avril 28, 2017 Système :  Métrique    Anglais   Mixte
« - 1 jour
+ 1 jour »
Jour Semaine Mois Année Personnalisé
  Maximum : Minimum : Moyenne :
Température sous abri : 15.2 °C 0.4 °C 8.1 °C
Point de rosée : 9.5 °C -0.3 °C 5.6 °C
Humidité : 97 % 66 % 85 %
Vitesse du vent : 19.3 km/h 0.0 km/h 3.9 km/h
Rafale : 25.7 km/h - -
Direction :- - West
Pression : 1021.2 hPa 1018.2 hPa -
Précipitations : 0.0 mm    
Historical Graphs
 
 
Tableau de données pour avril 28, 2017
Heure Tempé Pt rosée Pression Vent Vitesse Rafale Humidité Taux pluie (/hr) Soleil
00:00 4.3 °C 3.4 °C 1020.9 hPa North 4.8 km/h 4.8 km/h 94 % 0.0 mm 0 W/m2
00:05 4.1 °C 3.2 °C 1020.9 hPa North 1.6 km/h 6.4 km/h 94 % 0.0 mm 0 W/m2
00:10 4.0 °C 3.1 °C 1020.9 hPa North 1.6 km/h 4.8 km/h 94 % 0.0 mm 0 W/m2
00:15 3.8 °C 3.0 °C 1020.9 hPa North 4.8 km/h 6.4 km/h 94 % 0.0 mm 0 W/m2
00:20 3.9 °C 3.2 °C 1020.9 hPa Calm   6.4 km/h 95 % 0.0 mm 0 W/m2
00:25 3.9 °C 3.2 °C 1020.9 hPa NNW 1.6 km/h 6.4 km/h 95 % 0.0 mm 0 W/m2
00:30 4.0 °C 3.3 °C 1020.9 hPa North 3.2 km/h 6.4 km/h 95 % 0.0 mm 0 W/m2
00:35 3.9 °C 3.2 °C 1020.9 hPa North 1.6 km/h 6.4 km/h 95 % 0.0 mm 0 W/m2
00:40 4.0 °C 3.3 °C 1020.9 hPa Calm   6.4 km/h 95 % 0.0 mm 0 W/m2
00:45 3.9 °C 3.2 °C 1020.9 hPa NE 3.2 km/h 6.4 km/h 95 % 0.0 mm 0 W/m2
00:50 3.8 °C 3.1 °C 1020.9 hPa Calm   4.8 km/h 95 % 0.0 mm 0 W/m2
00:55 3.8 °C 3.1 °C 1020.9 hPa Calm   4.8 km/h 95 % 0.0 mm 0 W/m2
01:00 3.7 °C 3.0 °C 1020.9 hPa Calm   3.2 km/h 95 % 0.0 mm 0 W/m2
01:05 3.6 °C 2.9 °C 1020.9 hPa Calm   1.6 km/h 95 % 0.0 mm 0 W/m2
01:10 3.6 °C 2.8 °C 1021.2 hPa Calm   3.2 km/h 95 % 0.0 mm 0 W/m2
01:15 3.4 °C 2.7 °C 1021.2 hPa Calm   3.2 km/h 95 % 0.0 mm 0 W/m2
01:20 3.3 °C 2.6 °C 1021.2 hPa Calm     95 % 0.0 mm 0 W/m2
01:25 3.2 °C 2.4 °C 1021.2 hPa Calm     95 % 0.0 mm 0 W/m2
01:30 3.1 °C 2.3 °C 1021.2 hPa Calm   1.6 km/h 95 % 0.0 mm 0 W/m2
01:35 2.9 °C 2.2 °C 1021.2 hPa NE 1.6 km/h 3.2 km/h 95 % 0.0 mm 0 W/m2
01:40 2.8 °C 2.1 °C 1021.2 hPa Calm   4.8 km/h 95 % 0.0 mm 0 W/m2
01:45 2.8 °C 2.1 °C 1021.2 hPa Calm   4.8 km/h 95 % 0.0 mm 0 W/m2
01:50 2.7 °C 2.0 °C 1021.2 hPa Calm   4.8 km/h 95 % 0.0 mm 0 W/m2
01:55 2.6 °C 1.8 °C 1021.2 hPa Calm   4.8 km/h 95 % 0.0 mm 0 W/m2
02:00 2.6 °C 1.8 °C 1020.9 hPa Calm     95 % 0.0 mm 0 W/m2
02:05 2.6 °C 1.9 °C 1020.9 hPa Calm   1.6 km/h 95 % 0.0 mm 0 W/m2
02:10 2.4 °C 1.7 °C 1020.9 hPa Calm   1.6 km/h 95 % 0.0 mm 0 W/m2
02:15 2.4 °C 1.7 °C 1020.9 hPa Calm   1.6 km/h 95 % 0.0 mm 0 W/m2
02:20 2.3 °C 1.6 °C 1020.9 hPa Calm   1.6 km/h 95 % 0.0 mm 0 W/m2
02:25 2.3 °C 1.6 °C 1020.9 hPa Calm     95 % 0.0 mm 0 W/m2
02:30 2.2 °C 1.6 °C 1020.9 hPa Calm     96 % 0.0 mm 0 W/m2
02:35 2.2 °C 1.6 °C 1020.9 hPa Calm     96 % 0.0 mm 0 W/m2
02:40 2.1 °C 1.5 °C 1020.9 hPa Calm     96 % 0.0 mm 0 W/m2
02:45 1.9 °C 1.2 °C 1020.9 hPa Calm     95 % 0.0 mm 0 W/m2
02:50 1.9 °C 1.4 °C 1020.9 hPa Calm     96 % 0.0 mm 0 W/m2
02:55 2.0 °C 1.4 °C 1020.9 hPa Calm     96 % 0.0 mm 0 W/m2
03:00 2.1 °C 1.5 °C 1020.9 hPa Calm     96 % 0.0 mm 0 W/m2
03:05 2.1 °C 1.5 °C 1020.5 hPa Calm     96 % 0.0 mm 0 W/m2
03:10 1.8 °C 1.3 °C 1020.5 hPa Calm     96 % 0.0 mm 0 W/m2
03:15 1.9 °C 1.3 °C 1020.5 hPa Calm     96 % 0.0 mm 0 W/m2
03:20 1.9 °C 1.4 °C 1020.5 hPa Calm     96 % 0.0 mm 0 W/m2
03:25 1.9 °C 1.3 °C 1020.5 hPa Calm     96 % 0.0 mm 0 W/m2
03:30 1.8 °C 1.3 °C 1020.5 hPa Calm     96 % 0.0 mm 0 W/m2
03:35 1.7 °C 1.0 °C 1020.5 hPa Calm     95 % 0.0 mm 0 W/m2
03:40 1.6 °C 1.0 °C 1020.5 hPa Calm     96 % 0.0 mm 0 W/m2
03:45 1.7 °C 1.1 °C 1020.2 hPa Calm   1.6 km/h 96 % 0.0 mm 0 W/m2
03:50 1.5 °C 0.9 °C 1020.2 hPa Calm   1.6 km/h 96 % 0.0 mm 0 W/m2
03:55 1.4 °C 0.9 °C 1020.2 hPa Calm     96 % 0.0 mm 0 W/m2
04:00 1.2 °C 0.5 °C 1020.2 hPa Calm     95 % 0.0 mm 0 W/m2
04:05 1.3 °C 0.8 °C 1020.2 hPa Calm     96 % 0.0 mm 0 W/m2
04:10 1.3 °C 0.8 °C 1020.2 hPa Calm     96 % 0.0 mm 0 W/m2
04:15 1.2 °C 0.5 °C 1020.2 hPa Calm     95 % 0.0 mm 0 W/m2
04:20 0.8 °C 0.1 °C 1020.2 hPa Calm     95 % 0.0 mm 0 W/m2
04:25 0.8 °C 0.1 °C 1020.2 hPa Calm     95 % 0.0 mm 0 W/m2
04:30 0.9 °C 0.3 °C 1020.2 hPa Calm   1.6 km/h 96 % 0.0 mm 0 W/m2
04:35 0.9 °C 0.2 °C 1020.2 hPa Calm   1.6 km/h 95 % 0.0 mm 0 W/m2
04:40 0.7 °C 0.0 °C 1020.2 hPa Calm     95 % 0.0 mm 0 W/m2
04:45 0.6 °C 0.0 °C 1020.2 hPa Calm     96 % 0.0 mm 0 W/m2
04:50 0.7 °C 0.2 °C 1019.9 hPa Calm     96 % 0.0 mm 0 W/m2
04:55 0.7 °C 0.1 °C 1019.9 hPa Calm     96 % 0.0 mm 0 W/m2
05:00 0.6 °C 0.0 °C 1019.9 hPa Calm     96 % 0.0 mm 0 W/m2
05:05 0.4 °C -0.3 °C 1019.9 hPa Calm   1.6 km/h 95 % 0.0 mm 0 W/m2
05:10 0.4 °C -0.2 °C 1020.2 hPa Calm   1.6 km/h 96 % 0.0 mm 0 W/m2
05:15 0.6 °C 0.0 °C 1020.2 hPa Calm     96 % 0.0 mm 0 W/m2
05:20 0.7 °C 0.1 °C 1020.2 hPa Calm     96 % 0.0 mm 0 W/m2
05:25 0.8 °C 0.3 °C 1020.2 hPa Calm     96 % 0.0 mm 0 W/m2
05:30 0.9 °C 0.4 °C 1019.9 hPa Calm     96 % 0.0 mm 0 W/m2
05:35 1.1 °C 0.5 °C 1019.9 hPa Calm     96 % 0.0 mm 0 W/m2
05:40 1.2 °C 0.7 °C 1019.9 hPa Calm   3.2 km/h 96 % 0.0 mm 0 W/m2
05:45 1.6 °C 1.0 °C 1019.9 hPa Calm   3.2 km/h 96 % 0.0 mm 0 W/m2
05:50 1.9 °C 1.3 °C 1019.9 hPa Calm     96 % 0.0 mm 0 W/m2
05:55 2.0 °C 1.4 °C 1019.9 hPa Calm     96 % 0.0 mm 0 W/m2
06:00 2.2 °C 1.7 °C 1019.9 hPa Calm   1.6 km/h 96 % 0.0 mm 0 W/m2
06:05 2.3 °C 1.8 °C 1019.9 hPa Calm   1.6 km/h 96 % 0.0 mm 0 W/m2
06:10 2.6 °C 2.0 °C 1019.9 hPa Calm   1.6 km/h 96 % 0.0 mm 0 W/m2
06:15 2.8 °C 2.3 °C 1019.9 hPa Calm   3.2 km/h 96 % 0.0 mm 0 W/m2
06:20 2.9 °C 2.4 °C 1019.9 hPa Calm   3.2 km/h 96 % 0.0 mm 0 W/m2
06:25 3.1 °C 2.5 °C 1019.5 hPa Calm     96 % 0.0 mm 0 W/m2
06:30 3.3 °C 2.7 °C 1019.9 hPa Calm     96 % 0.0 mm 0 W/m2
06:35 3.4 °C 2.9 °C 1019.9 hPa Calm     96 % 0.0 mm 0 W/m2
06:40 3.6 °C 3.0 °C 1019.9 hPa Calm     96 % 0.0 mm 0 W/m2
06:45 3.8 °C 3.2 °C 1019.9 hPa Calm     96 % 0.0 mm 0 W/m2
06:50 3.9 °C 3.3 °C 1019.5 hPa Calm     96 % 0.0 mm 0 W/m2
06:55 4.0 °C 3.4 °C 1019.5 hPa Calm     96 % 0.0 mm 0 W/m2
07:00 4.1 °C 3.5 °C 1019.5 hPa Calm   1.6 km/h 96 % 0.0 mm 0 W/m2
07:05 4.1 °C 3.5 °C 1019.5 hPa Calm   1.6 km/h 96 % 0.0 mm 0 W/m2
07:10 4.2 °C 3.6 °C 1019.5 hPa Calm     96 % 0.0 mm 5 W/m2
07:15 4.4 °C 3.8 °C 1019.9 hPa Calm     96 % 0.0 mm 9 W/m2
07:20 4.4 °C 3.9 °C 1019.9 hPa Calm     96 % 0.0 mm 11 W/m2
07:25 4.6 °C 4.0 °C 1019.9 hPa North 1.6 km/h 3.2 km/h 96 % 0.0 mm 14 W/m2
07:30 4.8 °C 4.2 °C 1019.9 hPa Calm   3.2 km/h 96 % 0.0 mm 16 W/m2
07:35 4.9 °C 4.4 °C 1019.5 hPa Calm   3.2 km/h 96 % 0.0 mm 18 W/m2
07:40 5.1 °C 4.5 °C 1019.9 hPa NW 1.6 km/h 4.8 km/h 96 % 0.0 mm 19 W/m2
07:45 5.3 °C 4.7 °C 1019.5 hPa Calm   6.4 km/h 96 % 0.0 mm 23 W/m2
07:50 5.4 °C 4.9 °C 1019.5 hPa NW 3.2 km/h 6.4 km/h 96 % 0.0 mm 28 W/m2
07:55 5.6 °C 5.0 °C 1019.9 hPa Calm   6.4 km/h 96 % 0.0 mm 35 W/m2
08:00 5.9 °C 5.3 °C 1019.9 hPa Calm   6.4 km/h 96 % 0.0 mm 46 W/m2
08:05 6.1 °C 5.7 °C 1019.9 hPa WNW 4.8 km/h 6.4 km/h 97 % 0.0 mm 56 W/m2
08:10 6.3 °C 5.9 °C 1019.5 hPa NW 1.6 km/h 6.4 km/h 97 % 0.0 mm 67 W/m2
08:15 6.7 °C 6.1 °C 1019.9 hPa NW 1.6 km/h 4.8 km/h 96 % 0.0 mm 74 W/m2
08:20 6.9 °C 6.3 °C 1019.9 hPa NW 3.2 km/h 9.7 km/h 96 % 0.0 mm 84 W/m2
08:25 7.1 °C 6.5 °C 1019.9 hPa WNW 3.2 km/h 9.7 km/h 96 % 0.0 mm 97 W/m2
08:30 7.4 °C 6.8 °C 1019.9 hPa Calm   8.0 km/h 96 % 0.0 mm 104 W/m2
08:35 7.7 °C 7.1 °C 1019.5 hPa NNW 3.2 km/h 8.0 km/h 96 % 0.0 mm 118 W/m2
08:40 8.0 °C 7.2 °C 1019.5 hPa WNW 4.8 km/h 6.4 km/h 95 % 0.0 mm 163 W/m2
08:45 8.3 °C 7.4 °C 1019.9 hPa Calm   9.7 km/h 94 % 0.0 mm 141 W/m2
08:50 8.6 °C 7.5 °C 1019.9 hPa NW 4.8 km/h 9.7 km/h 93 % 0.0 mm 142 W/m2
08:55 8.6 °C 7.4 °C 1019.9 hPa WNW 6.4 km/h 6.4 km/h 92 % 0.0 mm 148 W/m2
09:00 8.7 °C 7.5 °C 1019.9 hPa Calm   8.0 km/h 92 % 0.0 mm 146 W/m2
09:05 8.9 °C 7.5 °C 1019.9 hPa WNW 6.4 km/h 9.7 km/h 91 % 0.0 mm 167 W/m2
09:10 9.0 °C 7.3 °C 1019.5 hPa WNW 1.6 km/h 9.7 km/h 89 % 0.0 mm 179 W/m2
09:15 9.2 °C 7.5 °C 1019.9 hPa West 8.0 km/h 9.7 km/h 89 % 0.0 mm 183 W/m2
09:20 9.4 °C 7.6 °C 1019.5 hPa WNW 4.8 km/h 9.7 km/h 88 % 0.0 mm 185 W/m2
09:25 9.6 °C 7.4 °C 1019.5 hPa WNW 6.4 km/h 8.0 km/h 86 % 0.0 mm 192 W/m2
09:30 9.7 °C 7.1 °C 1019.5 hPa West 6.4 km/h 9.7 km/h 84 % 0.0 mm 188 W/m2
09:35 9.9 °C 7.3 °C 1019.9 hPa Calm   9.7 km/h 84 % 0.0 mm 186 W/m2
09:40 10.0 °C 7.4 °C 1019.9 hPa WNW 3.2 km/h 9.7 km/h 84 % 0.0 mm 188 W/m2
09:45 9.9 °C 7.2 °C 1019.9 hPa West 1.6 km/h 8.0 km/h 83 % 0.0 mm 193 W/m2
09:50 10.1 °C 7.5 °C 1019.9 hPa NW 4.8 km/h 8.0 km/h 84 % 0.0 mm 193 W/m2
09:55 10.2 °C 7.4 °C 1019.9 hPa NW 3.2 km/h 9.7 km/h 83 % 0.0 mm 199 W/m2
10:00 10.2 °C 7.3 °C 1019.9 hPa NW 3.2 km/h 9.7 km/h 82 % 0.0 mm 213 W/m2
10:05 10.2 °C 7.1 °C 1019.9 hPa WNW 3.2 km/h 8.0 km/h 81 % 0.0 mm 216 W/m2
10:10 10.2 °C 7.1 °C 1019.9 hPa NW 1.6 km/h 9.7 km/h 81 % 0.0 mm 204 W/m2
10:15 10.3 °C 7.2 °C 1019.9 hPa WNW 9.7 km/h 11.3 km/h 81 % 0.0 mm 197 W/m2
10:20 10.3 °C 7.2 °C 1019.9 hPa WNW 6.4 km/h 11.3 km/h 81 % 0.0 mm 195 W/m2
10:25 10.2 °C 6.9 °C 1019.9 hPa NNW 4.8 km/h 12.9 km/h 80 % 0.0 mm 192 W/m2
10:30 10.3 °C 7.0 °C 1019.9 hPa Calm   12.9 km/h 80 % 0.0 mm 195 W/m2
10:35 10.6 °C 7.2 °C 1019.9 hPa West 3.2 km/h 8.0 km/h 80 % 0.0 mm 209 W/m2
10:40 10.6 °C 6.9 °C 1019.9 hPa West 1.6 km/h 12.9 km/h 78 % 0.0 mm 221 W/m2
10:45 10.8 °C 6.9 °C 1019.9 hPa West 3.2 km/h 12.9 km/h 77 % 0.0 mm 234 W/m2
10:50 10.8 °C 6.6 °C 1019.9 hPa West 3.2 km/h 12.9 km/h 75 % 0.0 mm 237 W/m2
10:55 11.1 °C 7.0 °C 1019.9 hPa WSW 3.2 km/h 11.3 km/h 76 % 0.0 mm 246 W/m2
11:00 11.1 °C 7.0 °C 1019.9 hPa WNW 3.2 km/h 11.3 km/h 76 % 0.0 mm 258 W/m2
11:05 11.2 °C 7.3 °C 1019.9 hPa WNW 4.8 km/h 9.7 km/h 77 % 0.0 mm 260 W/m2
11:10 11.2 °C 6.6 °C 1019.9 hPa West 3.2 km/h 12.9 km/h 73 % 0.0 mm 272 W/m2
11:15 11.3 °C 7.1 °C 1019.9 hPa West 8.0 km/h 12.9 km/h 75 % 0.0 mm 295 W/m2
11:20 11.6 °C 7.5 °C 1019.9 hPa WNW 9.7 km/h 11.3 km/h 76 % 0.0 mm 315 W/m2
11:25 11.5 °C 7.2 °C 1019.9 hPa WNW 11.3 km/h 12.9 km/h 75 % 0.0 mm 338 W/m2
11:30 11.6 °C 7.1 °C 1019.9 hPa WNW 9.7 km/h 12.9 km/h 74 % 0.0 mm 369 W/m2
11:35 11.8 °C 7.1 °C 1019.9 hPa NW 9.7 km/h 16.1 km/h 73 % 0.0 mm 388 W/m2
11:40 11.8 °C 6.9 °C 1019.9 hPa West 4.8 km/h 16.1 km/h 72 % 0.0 mm 404 W/m2
11:45 12.0 °C 7.3 °C 1019.9 hPa WNW 3.2 km/h 14.5 km/h 73 % 0.0 mm 420 W/m2
11:50 11.9 °C 7.3 °C 1019.9 hPa WNW 6.4 km/h 14.5 km/h 73 % 0.0 mm 434 W/m2
11:55 12.3 °C 7.8 °C 1019.9 hPa WNW 1.6 km/h 14.5 km/h 74 % 0.0 mm 496 W/m2
12:00 12.7 °C 8.1 °C 1019.9 hPa WSW 9.7 km/h 12.9 km/h 74 % 0.0 mm 538 W/m2
12:05 12.8 °C 8.1 °C 1019.9 hPa WSW 8.0 km/h 16.1 km/h 73 % 0.0 mm 582 W/m2
12:10 13.2 °C 8.2 °C 1019.9 hPa WNW 3.2 km/h 16.1 km/h 72 % 0.0 mm 675 W/m2
12:15 13.3 °C 7.8 °C 1019.9 hPa WSW 4.8 km/h 19.3 km/h 69 % 0.0 mm 656 W/m2
12:20 13.0 °C 7.9 °C 1019.9 hPa WNW 8.0 km/h 19.3 km/h 71 % 0.0 mm 752 W/m2
12:25 13.4 °C 8.1 °C 1019.9 hPa West 9.7 km/h 17.7 km/h 70 % 0.0 mm 817 W/m2
12:30 13.8 °C 8.2 °C 1019.9 hPa Calm   17.7 km/h 69 % 0.0 mm 923 W/m2
12:35 14.0 °C 8.2 °C 1019.5 hPa WNW 8.0 km/h 17.7 km/h 68 % 0.0 mm 983 W/m2
12:40 13.9 °C 7.9 °C 1019.5 hPa WSW 6.4 km/h 17.7 km/h 67 % 0.0 mm 807 W/m2
12:45 13.8 °C 9.0 °C 1019.5 hPa WNW 9.7 km/h 17.7 km/h 73 % 0.0 mm 749 W/m2
12:50 14.0 °C 8.4 °C 1019.5 hPa NW 12.9 km/h 19.3 km/h 69 % 0.0 mm 835 W/m2
12:55 14.3 °C 8.0 °C 1019.5 hPa West 11.3 km/h 19.3 km/h 66 % 0.0 mm 1025 W/m2
13:00 14.9 °C 8.9 °C 1019.5 hPa West 9.7 km/h 19.3 km/h 67 % 0.0 mm 749 W/m2
13:05 14.4 °C 8.3 °C 1019.5 hPa West 8.0 km/h 17.7 km/h 67 % 0.0 mm 882 W/m2
13:10 14.7 °C 9.5 °C 1019.5 hPa West 9.7 km/h 19.3 km/h 71 % 0.0 mm 803 W/m2
13:15 14.0 °C 8.0 °C 1019.5 hPa WSW 8.0 km/h 22.5 km/h 67 % 0.0 mm 316 W/m2
13:20 12.6 °C 7.1 °C 1019.5 hPa SW 8.0 km/h 22.5 km/h 69 % 0.0 mm 294 W/m2
13:25 12.3 °C 7.6 °C 1019.5 hPa WSW 9.7 km/h 20.9 km/h 73 % 0.0 mm 322 W/m2
13:30 13.8 °C 8.9 °C 1019.5 hPa West 9.7 km/h 20.9 km/h 72 % 0.0 mm 1051 W/m2
13:35 13.8 °C 8.0 °C 1019.5 hPa West 4.8 km/h 20.9 km/h 68 % 0.0 mm 287 W/m2
13:40 12.8 °C 7.2 °C 1019.5 hPa WNW 11.3 km/h 20.9 km/h 69 % 0.0 mm 292 W/m2
13:45 12.3 °C 7.4 °C 1019.2 hPa WSW 4.8 km/h 20.9 km/h 72 % 0.0 mm 483 W/m2
13:50 12.9 °C 7.8 °C 1019.5 hPa WSW 9.7 km/h 16.1 km/h 71 % 0.0 mm 510 W/m2
13:55 12.5 °C 7.0 °C 1019.5 hPa SW 4.8 km/h 22.5 km/h 69 % 0.0 mm 322 W/m2
14:00 12.3 °C 7.4 °C 1019.2 hPa SW 11.3 km/h 22.5 km/h 72 % 0.0 mm 262 W/m2
14:05 12.0 °C 7.1 °C 1019.5 hPa West 16.1 km/h 25.7 km/h 72 % 0.0 mm 202 W/m2
14:10 11.8 °C 7.1 °C 1019.5 hPa West 9.7 km/h 25.7 km/h 73 % 0.0 mm 213 W/m2
14:20 12.1 °C 7.8 °C 1019.5 hPa WNW 11.3 km/h 16.1 km/h 75 % 0.0 mm 255 W/m2
14:25 11.9 °C 7.5 °C 1019.5 hPa West 12.9 km/h 19.3 km/h 74 % 0.0 mm 241 W/m2
14:30 11.9 °C 7.3 °C 1019.5 hPa West 4.8 km/h 19.3 km/h 73 % 0.0 mm 246 W/m2
14:35 12.0 °C 7.5 °C 1019.5 hPa West 11.3 km/h 17.7 km/h 74 % 0.0 mm 246 W/m2
14:40 12.1 °C 7.6 °C 1019.5 hPa West 8.0 km/h 17.7 km/h 74 % 0.0 mm 257 W/m2
14:45 12.1 °C 7.6 °C 1019.5 hPa West 9.7 km/h 17.7 km/h 74 % 0.0 mm 216 W/m2
14:50 12.1 °C 7.6 °C 1019.5 hPa WSW 8.0 km/h 17.7 km/h 74 % 0.0 mm 244 W/m2
14:55 12.1 °C 7.8 °C 1019.5 hPa West 12.9 km/h 16.1 km/h 75 % 0.0 mm 288 W/m2
15:00 12.3 °C 8.0 °C 1019.5 hPa West 6.4 km/h 16.1 km/h 75 % 0.0 mm 297 W/m2
15:05 12.3 °C 7.6 °C 1019.5 hPa West 4.8 km/h 16.1 km/h 73 % 0.0 mm 306 W/m2
15:10 12.4 °C 7.9 °C 1019.5 hPa NNW 4.8 km/h 17.7 km/h 74 % 0.0 mm 330 W/m2
15:15 13.0 °C 8.7 °C 1019.2 hPa West 6.4 km/h 17.7 km/h 75 % 0.0 mm 967 W/m2
15:20 14.5 °C 9.3 °C 1019.2 hPa WSW 8.0 km/h 17.7 km/h 71 % 0.0 mm 1021 W/m2
15:25 13.8 °C 8.5 °C 1019.2 hPa WNW 14.5 km/h 17.7 km/h 70 % 0.0 mm 540 W/m2
15:30 13.5 °C 7.9 °C 1019.5 hPa WNW 6.4 km/h 25.7 km/h 69 % 0.0 mm 464 W/m2
15:35 13.1 °C 8.1 °C 1019.2 hPa NW 6.4 km/h 25.7 km/h 72 % 0.0 mm 396 W/m2
15:40 12.9 °C 8.0 °C 1019.2 hPa SW 4.8 km/h 22.5 km/h 72 % 0.0 mm 320 W/m2
15:45 12.7 °C 7.9 °C 1019.2 hPa West 8.0 km/h 22.5 km/h 73 % 0.0 mm 287 W/m2
15:50 12.4 °C 7.9 °C 1019.2 hPa West 6.4 km/h 20.9 km/h 74 % 0.0 mm 316 W/m2
16:00 12.6 °C 7.8 °C 1019.2 hPa West 9.7 km/h 20.9 km/h 73 % 0.0 mm 415 W/m2
16:05 13.2 °C 8.7 °C 1019.2 hPa West 4.8 km/h 19.3 km/h 74 % 0.0 mm 1000 W/m2
16:10 14.9 °C 9.2 °C 1018.8 hPa WNW 6.4 km/h 20.9 km/h 69 % 0.0 mm 1011 W/m2
16:15 15.2 °C 9.5 °C 1018.8 hPa WNW 9.7 km/h 20.9 km/h 69 % 0.0 mm 1011 W/m2
16:20 14.8 °C 8.5 °C 1018.8 hPa WNW 3.2 km/h 20.9 km/h 66 % 0.0 mm 524 W/m2
16:25 13.7 °C 7.9 °C 1018.8 hPa WSW 17.7 km/h 20.9 km/h 68 % 0.0 mm 320 W/m2
16:30 12.9 °C 8.0 °C 1018.8 hPa West 9.7 km/h 20.9 km/h 72 % 0.0 mm 260 W/m2
16:35 12.7 °C 8.2 °C 1018.8 hPa WNW 9.7 km/h 20.9 km/h 74 % 0.0 mm 202 W/m2
16:40 12.4 °C 7.7 °C 1018.8 hPa NW 11.3 km/h 19.3 km/h 73 % 0.0 mm 176 W/m2
16:45 12.2 °C 7.9 °C 1018.8 hPa WNW 12.9 km/h 17.7 km/h 75 % 0.0 mm 167 W/m2
16:50 12.3 °C 8.0 °C 1018.8 hPa West 11.3 km/h 17.7 km/h 75 % 0.0 mm 171 W/m2
16:55 12.3 °C 7.8 °C 1018.8 hPa WSW 12.9 km/h 22.5 km/h 74 % 0.0 mm 267 W/m2
17:00 12.6 °C 8.2 °C 1018.8 hPa WNW 9.7 km/h 22.5 km/h 75 % 0.0 mm 302 W/m2
17:05 12.7 °C 8.1 °C 1018.8 hPa WSW 8.0 km/h 22.5 km/h 74 % 0.0 mm 316 W/m2
17:10 12.8 °C 8.1 °C 1018.8 hPa West 17.7 km/h 20.9 km/h 73 % 0.0 mm 320 W/m2
17:15 12.4 °C 7.7 °C 1018.8 hPa WNW 12.9 km/h 20.9 km/h 73 % 0.0 mm 234 W/m2
17:20 12.6 °C 8.2 °C 1018.8 hPa West 19.3 km/h 20.9 km/h 75 % 0.0 mm 223 W/m2
17:25 12.5 °C 8.2 °C 1018.8 hPa West 9.7 km/h 20.9 km/h 75 % 0.0 mm 230 W/m2
17:30 12.6 °C 8.5 °C 1018.8 hPa NW 11.3 km/h 20.9 km/h 76 % 0.0 mm 239 W/m2
17:35 12.6 °C 8.3 °C 1018.8 hPa WNW 19.3 km/h 24.1 km/h 75 % 0.0 mm 197 W/m2
17:40 12.3 °C 8.0 °C 1018.8 hPa SW 8.0 km/h 24.1 km/h 75 % 0.0 mm 176 W/m2
17:45 12.3 °C 8.0 °C 1018.8 hPa West 6.4 km/h 19.3 km/h 75 % 0.0 mm 190 W/m2
17:50 12.3 °C 8.0 °C 1018.8 hPa WNW 6.4 km/h 19.3 km/h 75 % 0.0 mm 262 W/m2
17:55 12.6 °C 8.1 °C 1018.5 hPa West 8.0 km/h 20.9 km/h 74 % 0.0 mm 229 W/m2
18:05 12.6 °C 8.4 °C 1018.5 hPa West 4.8 km/h 19.3 km/h 76 % 0.0 mm 211 W/m2
18:10 12.6 °C 8.9 °C 1018.5 hPa WNW 4.8 km/h 19.3 km/h 78 % 0.0 mm 209 W/m2
18:15 12.7 °C 8.6 °C 1018.5 hPa WNW 6.4 km/h 17.7 km/h 76 % 0.0 mm 192 W/m2
18:20 12.4 °C 8.7 °C 1018.5 hPa NW 9.7 km/h 19.3 km/h 78 % 0.0 mm 176 W/m2
18:25 12.4 °C 8.7 °C 1018.8 hPa West 17.7 km/h 19.3 km/h 78 % 0.0 mm 195 W/m2
18:30 12.4 °C 8.5 °C 1018.5 hPa West 12.9 km/h 17.7 km/h 77 % 0.0 mm 272 W/m2
18:35 12.4 °C 8.3 °C 1018.5 hPa West 14.5 km/h 20.9 km/h 76 % 0.0 mm 441 W/m2
18:40 12.7 °C 8.1 °C 1018.5 hPa West 3.2 km/h 20.9 km/h 74 % 0.0 mm 250 W/m2
18:45 12.6 °C 8.1 °C 1018.5 hPa WNW 8.0 km/h 20.9 km/h 74 % 0.0 mm 236 W/m2
18:50 12.6 °C 8.0 °C 1018.5 hPa West 4.8 km/h 20.9 km/h 74 % 0.0 mm 181 W/m2
18:55 12.3 °C 7.6 °C 1018.5 hPa West 11.3 km/h 20.9 km/h 73 % 0.0 mm 149 W/m2
19:00 12.2 °C 7.7 °C 1018.5 hPa West 6.4 km/h 19.3 km/h 74 % 0.0 mm 130 W/m2
19:05 12.2 °C 7.9 °C 1018.5 hPa West 9.7 km/h 17.7 km/h 75 % 0.0 mm 120 W/m2
19:10 12.1 °C 7.8 °C 1018.5 hPa WSW 8.0 km/h 16.1 km/h 75 % 0.0 mm 116 W/m2
19:15 12.1 °C 8.0 °C 1018.5 hPa WNW 3.2 km/h 17.7 km/h 76 % 0.0 mm 113 W/m2
19:20 12.1 °C 8.0 °C 1018.5 hPa West 6.4 km/h 17.7 km/h 76 % 0.0 mm 121 W/m2
19:25 12.2 °C 8.3 °C 1018.5 hPa West 6.4 km/h 14.5 km/h 77 % 0.0 mm 179 W/m2
19:30 12.2 °C 8.1 °C 1018.5 hPa West 11.3 km/h 14.5 km/h 76 % 0.0 mm 153 W/m2
19:35 12.2 °C 8.1 °C 1018.5 hPa West 3.2 km/h 17.7 km/h 76 % 0.0 mm 130 W/m2
19:40 12.4 °C 8.3 °C 1018.5 hPa NW 1.6 km/h 17.7 km/h 76 % 0.0 mm 128 W/m2
19:45 12.3 °C 8.2 °C 1018.5 hPa West 6.4 km/h 16.1 km/h 76 % 0.0 mm 142 W/m2
19:50 12.3 °C 8.2 °C 1018.5 hPa West 4.8 km/h 14.5 km/h 76 % 0.0 mm 127 W/m2
19:55 12.3 °C 8.4 °C 1018.5 hPa WNW 6.4 km/h 12.9 km/h 77 % 0.0 mm 98 W/m2
20:00 12.1 °C 8.1 °C 1018.5 hPa West 11.3 km/h 14.5 km/h 77 % 0.0 mm 84 W/m2
20:05 11.8 °C 7.9 °C 1018.5 hPa West 9.7 km/h 17.7 km/h 77 % 0.0 mm 69 W/m2
20:10 11.7 °C 8.0 °C 1018.5 hPa WSW 4.8 km/h 17.7 km/h 78 % 0.0 mm 86 W/m2
20:15 11.7 °C 8.1 °C 1018.5 hPa NW 8.0 km/h 12.9 km/h 79 % 0.0 mm 58 W/m2
20:20 11.5 °C 8.2 °C 1018.5 hPa WNW 4.8 km/h 12.9 km/h 80 % 0.0 mm 46 W/m2
20:25 11.3 °C 8.0 °C 1018.5 hPa WNW 3.2 km/h 11.3 km/h 80 % 0.0 mm 33 W/m2
20:30 11.1 °C 7.9 °C 1018.5 hPa WNW 1.6 km/h 9.7 km/h 81 % 0.0 mm 26 W/m2
20:35 10.8 °C 7.8 °C 1018.5 hPa Calm   9.7 km/h 82 % 0.0 mm 21 W/m2
20:40 10.5 °C 7.7 °C 1018.5 hPa WNW 3.2 km/h 8.0 km/h 83 % 0.0 mm 21 W/m2
20:45 10.2 °C 7.6 °C 1018.5 hPa WNW 4.8 km/h 6.4 km/h 84 % 0.0 mm 19 W/m2
20:50 10.0 °C 7.4 °C 1018.2 hPa Calm   8.0 km/h 84 % 0.0 mm 14 W/m2
20:55 9.8 °C 7.4 °C 1018.5 hPa NW 1.6 km/h 8.0 km/h 85 % 0.0 mm 12 W/m2
21:00 9.5 °C 7.1 °C 1018.5 hPa WNW 1.6 km/h 4.8 km/h 85 % 0.0 mm 9 W/m2
21:05 9.3 °C 7.1 °C 1018.5 hPa Calm   4.8 km/h 86 % 0.0 mm 7 W/m2
21:10 9.1 °C 7.1 °C 1018.5 hPa Calm   3.2 km/h 87 % 0.0 mm 5 W/m2
21:15 8.9 °C 7.0 °C 1018.5 hPa Calm   1.6 km/h 88 % 0.0 mm 0 W/m2
21:25 8.3 °C 6.6 °C 1018.5 hPa Calm     89 % 0.0 mm 0 W/m2
21:30 8.1 °C 6.6 °C 1018.5 hPa Calm     90 % 0.0 mm 0 W/m2
21:35 7.9 °C 6.4 °C 1018.5 hPa Calm     90 % 0.0 mm 0 W/m2
21:40 7.8 °C 6.5 °C 1018.5 hPa Calm     91 % 0.0 mm 0 W/m2
21:45 7.7 °C 6.3 °C 1018.5 hPa Calm   1.6 km/h 91 % 0.0 mm 0 W/m2
21:50 7.6 °C 6.4 °C 1018.5 hPa Calm   1.6 km/h 92 % 0.0 mm 0 W/m2
21:55 7.6 °C 6.3 °C 1018.5 hPa Calm     92 % 0.0 mm 0 W/m2
22:00 7.6 °C 6.4 °C 1018.5 hPa Calm     92 % 0.0 mm 0 W/m2
22:05 7.5 °C 6.3 °C 1018.5 hPa Calm     92 % 0.0 mm 0 W/m2
22:10 7.4 °C 6.2 °C 1018.5 hPa Calm     92 % 0.0 mm 0 W/m2
22:15 7.3 °C 6.1 °C 1018.5 hPa Calm     92 % 0.0 mm 0 W/m2
22:20 7.2 °C 6.1 °C 1018.5 hPa Calm     93 % 0.0 mm 0 W/m2
22:25 7.1 °C 6.0 °C 1018.5 hPa Calm     93 % 0.0 mm 0 W/m2
22:30 6.8 °C 5.8 °C 1018.5 hPa Calm     93 % 0.0 mm 0 W/m2
22:35 6.8 °C 5.8 °C 1018.5 hPa Calm   3.2 km/h 93 % 0.0 mm 0 W/m2
22:40 7.1 °C 6.2 °C 1018.5 hPa Calm   3.2 km/h 94 % 0.0 mm 0 W/m2
22:45 7.1 °C 6.1 °C 1018.5 hPa Calm   1.6 km/h 93 % 0.0 mm 0 W/m2
22:50 7.0 °C 5.9 °C 1018.5 hPa Calm   1.6 km/h 93 % 0.0 mm 0 W/m2
22:55 6.7 °C 5.6 °C 1018.5 hPa Calm     93 % 0.0 mm 0 W/m2
23:00 6.3 °C 5.3 °C 1018.5 hPa Calm     93 % 0.0 mm 0 W/m2
23:05 6.2 °C 5.1 °C 1018.5 hPa WNW 1.6 km/h 1.6 km/h 93 % 0.0 mm 0 W/m2
23:10 6.2 °C 5.1 °C 1018.5 hPa Calm   1.6 km/h 93 % 0.0 mm 0 W/m2
23:20 6.1 °C 5.0 °C 1018.5 hPa Calm     93 % 0.0 mm 0 W/m2
23:25 5.9 °C 5.0 °C 1018.5 hPa Calm     94 % 0.0 mm 0 W/m2
23:30 5.7 °C 4.8 °C 1018.5 hPa Calm     94 % 0.0 mm 0 W/m2
23:35 5.6 °C 4.7 °C 1018.5 hPa Calm     94 % 0.0 mm 0 W/m2
23:40 5.7 °C 4.8 °C 1018.5 hPa Calm     94 % 0.0 mm 0 W/m2
23:45 5.4 °C 4.5 °C 1018.5 hPa Calm     94 % 0.0 mm 0 W/m2
23:50 5.3 °C 4.4 °C 1018.5 hPa Calm     94 % 0.0 mm 0 W/m2
23:55 5.1 °C 4.2 °C 1018.5 hPa Calm     94 % 0.0 mm 0 W/m2
Avec l'autorisation de Weather Underground - 1.75 mb